Time;durP1;ratioP1;P1;durP2;ratioP2;P2;SDS_P1;SDS_P2;PMS_P1;PMS_P2;Temp;Humidity;BMP_temperature;BMP_pressure;BME280_temperature;BME280_humidity;BME280_pressure;Samples;Min_cycle;Max_cycle;Signal;HPM_P1;HPM_P2
2021/03/24 00:01:14;;;;;;;3.47;2.03;;;;;;;7.14;68.47;100946.38;5062761;28;20229;-65
2021/03/24 00:03:41;;;;;;;4.60;2.07;;;;;;;7.20;67.93;100942.53;5066846;28;20703;-65
2021/03/24 00:06:09;;;;;;;1.77;1.50;;;;;;;7.18;68.20;100939.94;5069462;28;20236;-65
2021/03/24 00:08:36;;;;;;;1.83;1.50;;;;;;;7.18;68.89;100931.91;5061730;28;20223;-65
2021/03/24 00:11:04;;;;;;;2.53;1.40;;;;;;;7.20;68.39;100926.50;5070936;28;20588;-65
2021/03/24 00:13:31;;;;;;;3.30;1.70;;;;;;;7.22;68.35;100925.47;5068562;28;20217;-65
2021/03/24 00:16:00;;;;;;;4.90;1.60;;;;;;;7.22;68.09;100919.25;5071411;28;20221;-65
2021/03/24 00:18:28;;;;;;;2.67;1.60;;;;;;;7.20;68.11;100918.47;5065392;28;20654;-64
2021/03/24 00:20:56;;;;;;;3.30;1.30;;;;;;;7.19;68.56;100920.28;5061605;28;20251;-65
2021/03/24 00:23:24;;;;;;;1.50;1.30;;;;;;;7.22;68.88;100919.25;5066094;28;20199;-65
2021/03/24 00:25:51;;;;;;;1.30;1.20;;;;;;;7.29;67.93;100910.84;5052048;28;20677;-64
2021/03/24 00:28:19;;;;;;;2.17;1.30;;;;;;;7.08;67.84;100866.56;5070049;28;20215;-65
2021/03/24 00:30:48;;;;;;;4.73;1.50;;;;;;;7.23;68.42;100902.28;5070946;28;20201;-65
2021/03/24 00:33:19;;;;;;;1.37;1.17;;;;;;;7.37;67.63;100908.69;5068936;28;20210;-65
2021/03/24 00:35:49;;;;;;;1.17;1.00;;;;;;;7.37;68.05;100908.69;5065513;28;20234;-66
2021/03/24 00:38:18;;;;;;;6.00;1.20;;;;;;;7.39;68.21;100908.59;5052730;28;20210;-66
2021/03/24 00:40:47;;;;;;;1.60;1.13;;;;;;;7.38;67.81;100910.41;5068724;28;20201;-65
2021/03/24 00:43:15;;;;;;;1.70;1.10;;;;;;;7.44;68.04;100906.53;5059836;28;20200;-65
2021/03/24 00:45:43;;;;;;;1.20;1.10;;;;;;;7.48;67.27;100900.09;5068888;28;20191;-65
2021/03/24 00:48:19;;;;;;;1.43;1.17;;;;;;;7.46;68.00;100899.31;5067874;28;20200;-65
2021/03/24 00:50:47;;;;;;;1.30;1.17;;;;;;;7.37;68.29;100892.66;5057671;28;20229;-65
2021/03/24 00:53:15;;;;;;;3.27;1.30;;;;;;;7.41;68.74;100904.03;5061446;28;20285;-65
2021/03/24 00:55:42;;;;;;;1.40;1.10;;;;;;;7.41;68.10;100894.22;5063458;28;20356;-66
2021/03/24 00:58:09;;;;;;;1.20;1.07;;;;;;;7.46;68.56;100896.63;5062741;28;20227;-67
2021/03/24 01:00:38;;;;;;;1.77;1.17;;;;;;;7.39;68.21;100892.56;5065891;28;20204;-65
2021/03/24 01:03:07;;;;;;;2.47;1.30;;;;;;;7.42;68.72;100897.75;5055203;28;20625;-67
2021/03/24 01:05:36;;;;;;;1.20;1.10;;;;;;;7.45;68.03;100889.56;5066019;28;20257;-67
2021/03/24 01:08:07;;;;;;;1.33;1.10;;;;;;;7.52;68.28;100887.44;5056971;28;20682;-66
2021/03/24 01:10:37;;;;;;;1.37;1.10;;;;;;;7.47;68.53;100887.69;5070844;28;20233;-66
2021/03/24 01:13:05;;;;;;;24.60;14.73;;;;;;;7.46;68.46;100883.28;5069145;28;20219;-65
2021/03/24 01:15:34;;;;;;;13.80;10.43;;;;;;;7.60;68.08;100886.06;5061966;28;20623;-65
2021/03/24 01:18:02;;;;;;;2.90;2.07;;;;;;;7.61;68.43;100882.44;5065163;28;20640;-65
2021/03/24 01:20:31;;;;;;;5.57;3.40;;;;;;;7.66;68.57;100891.13;5068714;28;20259;-65
2021/03/24 01:22:59;;;;;;;8.70;6.53;;;;;;;7.65;69.17;100884.03;5068726;28;20212;-66
2021/03/24 01:25:27;;;;;;;2.10;1.47;;;;;;;7.62;68.95;100880.63;5050474;28;20725;-66
2021/03/24 01:27:56;;;;;;;3.00;1.60;;;;;;;7.63;68.79;100867.19;5050421;28;20203;-66
2021/03/24 01:30:25;;;;;;;1.70;1.40;;;;;;;7.73;67.82;100884.50;5063630;28;20239;-66
2021/03/24 01:32:53;;;;;;;2.30;1.73;;;;;;;7.81;67.04;100880.53;5067940;28;20264;-66
2021/03/24 01:35:21;;;;;;;4.43;2.40;;;;;;;7.87;66.71;100881.06;5055532;28;20227;-66
2021/03/24 01:37:50;;;;;;;3.27;1.93;;;;;;;7.88;66.79;100879.25;5059965;28;20678;-66
2021/03/24 01:40:25;;;;;;;2.20;1.60;;;;;;;7.86;67.20;100879.31;5065820;28;20226;-65
2021/03/24 01:42:57;;;;;;;5.03;2.20;;;;;;;7.88;67.86;100877.44;5069753;28;20690;-66
2021/03/24 01:46:01;;;;;;;11.37;7.43;;;;;;;7.94;67.24;100876.22;5059860;28;20275;-65
2021/03/24 01:48:28;;;;;;;4.00;2.00;;;;;;;7.99;66.27;100871.50;5030902;28;20243;-66
2021/03/24 01:50:56;;;;;;;2.10;1.57;;;;;;;7.96;66.85;100872.56;5069431;28;20288;-66
2021/03/24 01:53:23;;;;;;;2.40;1.30;;;;;;;8.00;66.35;100870.56;5068083;28;20277;-66
2021/03/24 01:55:51;;;;;;;2.67;1.90;;;;;;;7.73;66.65;100844.38;5056420;28;20213;-65
2021/03/24 01:58:18;;;;;;;3.20;1.77;;;;;;;7.88;67.52;100864.06;5056453;28;20203;-66
2021/03/24 02:00:50;;;;;;;2.40;1.57;;;;;;;7.85;67.20;100866.03;5063914;28;20239;-66
2021/03/24 02:03:17;;;;;;;3.20;1.53;;;;;;;7.74;66.99;100854.13;5067879;28;20606;-67
2021/03/24 02:05:45;;;;;;;1.27;1.17;;;;;;;7.86;67.12;100867.78;5068342;28;20204;-65
2021/03/24 02:08:16;;;;;;;1.93;1.37;;;;;;;7.82;67.38;100866.22;5060671;28;20202;-65
2021/03/24 02:10:48;;;;;;;1.30;1.20;;;;;;;7.70;67.99;100857.91;5068303;28;20619;-64
2021/03/24 02:13:22;;;;;;;3.27;1.77;;;;;;;7.76;67.52;100859.41;5061244;28;20197;-65
2021/03/24 02:15:54;;;;;;;6.70;1.70;;;;;;;7.74;68.00;100855.94;5062027;28;20650;-65
2021/03/24 02:18:23;;;;;;;2.63;1.67;;;;;;;7.67;68.07;100852.75;5052011;28;20254;-65
2021/03/24 02:20:56;;;;;;;3.67;1.70;;;;;;;7.80;67.21;100847.59;5068192;28;20212;-65
2021/03/24 02:23:51;;;;;;;1.80;1.50;;;;;;;7.75;67.64;100853.19;5067004;28;20222;-64
2021/03/24 02:26:26;;;;;;;2.90;1.37;;;;;;;7.75;67.81;100849.66;5067943;28;20218;-65
2021/03/24 02:28:57;;;;;;;3.70;1.30;;;;;;;7.58;67.47;100815.81;5055259;28;20283;-66
2021/03/24 02:31:27;;;;;;;2.00;1.10;;;;;;;7.73;67.75;100846.19;5063730;28;20673;-65
2021/03/24 02:34:01;;;;;;;2.83;1.33;;;;;;;7.74;67.70;100842.56;5062707;28;20506;-65
2021/03/24 02:36:29;;;;;;;4.27;1.83;;;;;;;7.79;67.16;100840.50;5049257;28;20226;-66
2021/03/24 02:38:59;;;;;;;3.33;1.23;;;;;;;7.81;67.04;100843.09;5062193;28;20260;-67
2021/03/24 02:41:27;;;;;;;1.17;1.07;;;;;;;7.79;67.71;100838.69;5068704;28;20207;-66
2021/03/24 02:43:56;;;;;;;1.60;1.30;;;;;;;7.76;67.14;100830.84;5064379;28;20210;-67
2021/03/24 02:46:24;;;;;;;1.63;1.30;;;;;;;7.84;66.77;100842.94;5061160;28;20800;-66
2021/03/24 02:48:52;;;;;;;1.87;1.37;;;;;;;7.86;65.94;100841.91;5067867;28;20203;-65
2021/03/24 02:51:24;;;;;;;2.93;1.30;;;;;;;7.78;66.45;100830.78;5068166;28;20610;-66
2021/03/24 02:54:04;;;;;;;2.07;1.40;;;;;;;7.81;66.63;100824.38;5062654;28;20224;-65
2021/03/24 02:56:32;;;;;;;2.07;1.53;;;;;;;7.76;66.83;100830.84;5061636;28;20192;-66
2021/03/24 02:59:01;;;;;;;2.00;1.37;;;;;;;7.79;66.68;100820.00;5068466;28;20210;-66
2021/03/24 03:01:32;;;;;;;2.70;1.70;;;;;;;7.87;66.48;100818.69;5059939;28;20279;-65
2021/03/24 03:04:05;;;;;;;3.73;1.40;;;;;;;7.71;66.03;100791.97;5056676;28;20230;-65
2021/03/24 03:06:33;;;;;;;2.37;1.60;;;;;;;7.83;66.58;100819.81;5058131;28;20223;-65
2021/03/24 03:09:04;;;;;;;1.40;1.13;;;;;;;7.82;66.33;100818.94;5067729;28;20560;-65
2021/03/24 03:11:40;;;;;;;5.77;1.67;;;;;;;7.76;67.20;100814.81;5065221;28;20206;-65
2021/03/24 03:14:13;;;;;;;3.57;1.60;;;;;;;7.68;67.33;100813.53;5068578;28;20217;-66
2021/03/24 03:16:44;;;;;;;2.27;1.70;;;;;;;7.75;66.30;100818.44;5054464;28;20196;-66
2021/03/24 03:19:18;;;;;;;1.40;1.30;;;;;;;7.84;66.15;100816.19;5064581;28;20210;-65
2021/03/24 03:21:51;;;;;;;1.70;1.50;;;;;;;7.75;67.08;100813.09;5066527;28;20204;-64
2021/03/24 03:24:36;;;;;;;1.83;1.40;;;;;;;7.77;66.89;100813.88;5070710;28;20319;-67
2021/03/24 03:27:06;;;;;;;86.03;62.53;;;;;;;7.80;66.54;100815.50;5065330;28;20221;-65
2021/03/24 03:29:34;;;;;;;129.20;64.47;;;;;;;7.80;65.94;100796.78;5060862;28;20235;-65
2021/03/24 03:32:04;;;;;;;6.03;3.97;;;;;;;7.83;66.16;100811.78;5060686;28;20219;-66
2021/03/24 03:34:35;;;;;;;2.63;2.03;;;;;;;7.80;67.31;100799.47;5071609;28;20206;-64
2021/03/24 03:37:03;;;;;;;3.10;1.70;;;;;;;7.90;66.33;100807.81;5069744;28;20194;-65
2021/03/24 03:39:31;;;;;;;4.40;3.50;;;;;;;7.92;66.19;100806.78;5071854;28;20191;-66
2021/03/24 03:42:03;;;;;;;3.13;1.90;;;;;;;7.91;66.16;100804.22;5068318;28;20242;-66
2021/03/24 03:44:31;;;;;;;2.77;2.37;;;;;;;7.96;66.29;100807.47;5062496;28;20200;-64
2021/03/24 03:47:05;;;;;;;1.40;1.10;;;;;;;7.92;66.47;100805.94;5068243;28;20312;-65
2021/03/24 03:49:33;;;;;;;1.50;1.30;;;;;;;7.76;66.55;100777.41;5058524;28;20226;-65
2021/03/24 03:52:12;;;;;;;2.10;1.27;;;;;;;7.97;66.04;100798.53;5068515;28;20199;-65
2021/03/24 03:54:58;;;;;;;1.83;1.30;;;;;;;7.93;65.76;100802.31;5052113;28;20765;-65
2021/03/24 03:57:31;;;;;;;1.30;1.20;;;;;;;7.90;66.18;100794.47;5052718;28;20619;-65
2021/03/24 04:00:09;;;;;;;2.07;1.73;;;;;;;7.91;65.90;100790.84;5064037;28;20197;-65
2021/03/24 04:02:43;;;;;;;2.17;1.30;;;;;;;7.88;66.89;100804.38;5061701;28;20305;-64
2021/03/24 04:05:15;;;;;;;1.10;0.80;;;;;;;7.90;66.30;100792.66;5071788;28;20220;-66
2021/03/24 04:07:48;;;;;;;1.03;0.93;;;;;;;7.92;66.11;100797.91;5065557;28;20208;-66
2021/03/24 04:10:16;;;;;;;0.90;0.90;;;;;;;7.91;65.48;100793.50;5063152;28;20193;-67
2021/03/24 04:12:44;;;;;;;1.97;1.07;;;;;;;7.82;66.38;100792.22;5060353;28;20205;-65
2021/03/24 04:15:15;;;;;;;1.10;1.00;;;;;;;7.76;66.72;100792.56;5070987;28;20221;-65
2021/03/24 04:17:48;;;;;;;1.27;1.00;;;;;;;7.78;66.80;100780.84;5071092;28;20226;-65
2021/03/24 04:20:17;;;;;;;1.37;1.07;;;;;;;7.82;66.05;100781.53;5069174;28;20251;-66
2021/03/24 04:22:47;;;;;;;1.37;1.00;;;;;;;7.87;65.90;100784.81;5071097;28;20206;-67
2021/03/24 04:25:21;;;;;;;1.93;1.33;;;;;;;7.87;65.51;100784.81;5070128;28;20205;-67
2021/03/24 04:27:50;;;;;;;1.60;1.17;;;;;;;7.76;66.77;100780.06;5068374;28;20231;-67
2021/03/24 04:30:22;;;;;;;1.97;1.10;;;;;;;7.74;66.42;100773.94;5069589;28;20313;-66
2021/03/24 04:32:51;;;;;;;1.67;1.20;;;;;;;7.80;66.41;100775.41;5070512;28;20250;-67
2021/03/24 04:35:21;;;;;;;1.17;1.07;;;;;;;7.81;66.15;100778.94;5070360;28;20222;-66
2021/03/24 04:37:51;;;;;;;4.37;1.20;;;;;;;7.75;66.27;100781.00;5056956;28;20208;-67
2021/03/24 04:40:26;;;;;;;1.20;1.10;;;;;;;7.78;65.80;100775.50;5065254;28;20311;-64
2021/03/24 04:42:58;;;;;;;1.73;1.00;;;;;;;7.77;66.05;100767.56;5071354;28;20283;-64
2021/03/24 04:45:41;;;;;;;3.10;1.30;;;;;;;7.73;66.25;100769.53;5070733;28;20199;-64
2021/03/24 04:48:16;;;;;;;1.43;1.00;;;;;;;7.38;65.95;100707.38;5071153;28;20201;-65
2021/03/24 04:50:49;;;;;;;1.53;1.17;;;;;;;7.73;67.18;100779.38;5069425;28;20199;-66
2021/03/24 04:53:18;;;;;;;1.00;0.90;;;;;;;7.70;66.60;100783.09;5059295;28;20206;-65
2021/03/24 04:55:47;;;;;;;1.40;1.10;;;;;;;7.70;66.40;100772.41;5064429;28;20721;-65
2021/03/24 04:58:30;;;;;;;1.40;1.03;;;;;;;7.65;67.21;100785.16;5061260;28;20201;-65
2021/03/24 05:01:04;;;;;;;2.47;1.47;;;;;;;7.68;67.01;100779.63;5069753;28;20208;-65
2021/03/24 05:03:38;;;;;;;1.73;1.10;;;;;;;7.67;67.18;100782.41;5071276;28;20903;-65
2021/03/24 05:06:26;;;;;;;2.57;1.50;;;;;;;7.69;66.94;100781.34;5064963;28;20205;-65
2021/03/24 05:08:53;;;;;;;1.80;1.23;;;;;;;7.59;67.56;100772.09;5070119;28;20199;-65
2021/03/24 05:11:27;;;;;;;1.40;1.30;;;;;;;7.56;67.49;100785.63;5060463;28;20201;-64
2021/03/24 05:14:00;;;;;;;1.53;1.20;;;;;;;7.27;67.16;100716.91;5068908;28;20221;-64
2021/03/24 05:16:32;;;;;;;1.83;1.30;;;;;;;7.68;66.67;100779.63;5067447;28;20598;-65
2021/03/24 05:19:01;;;;;;;1.67;1.50;;;;;;;7.59;67.25;100785.47;5063126;28;20758;-65
2021/03/24 05:21:51;;;;;;;1.53;1.30;;;;;;;7.61;68.06;100772.00;5065741;28;20203;-65
2021/03/24 05:24:25;;;;;;;2.23;1.23;;;;;;;7.64;67.49;100782.53;5056790;28;20714;-65
2021/03/24 05:27:00;;;;;;;1.90;1.67;;;;;;;7.38;67.65;100758.13;5065407;28;20550;-65
2021/03/24 05:29:33;;;;;;;2.20;1.67;;;;;;;7.67;66.39;100788.59;5064291;28;20235;-65
2021/03/24 05:32:01;;;;;;;1.20;1.10;;;;;;;7.69;66.32;100792.06;5065452;28;20621;-65
2021/03/24 05:34:32;;;;;;;2.10;1.50;;;;;;;7.71;66.37;100794.63;5063308;28;20228;-65
2021/03/24 05:37:01;;;;;;;2.23;1.43;;;;;;;7.50;66.28;100767.28;5062485;28;20268;-65
2021/03/24 05:39:31;;;;;;;47.70;33.60;;;;;;;7.71;66.27;100806.19;5064736;28;20284;-64
2021/03/24 05:42:11;;;;;;;28.83;14.27;;;;;;;7.69;66.70;100812.56;5052322;28;21702;-64
2021/03/24 05:45:07;;;;;;;19.73;8.53;;;;;;;7.71;65.79;100799.97;5046691;28;20682;-65
2021/03/24 05:47:53;;;;;;;7.37;4.00;;;;;;;7.69;65.69;100817.91;5041787;28;20207;-65
2021/03/24 05:50:35;;;;;;;7.37;4.57;;;;;;;7.59;66.60;100811.31;5049540;28;20206;-66
2021/03/24 05:53:16;;;;;;;5.67;2.37;;;;;;;7.63;65.91;100799.53;5061405;28;20654;-66
2021/03/24 05:55:48;;;;;;;12.57;3.23;;;;;;;7.65;65.93;100810.97;5056635;28;20718;-66
2021/03/24 05:58:30;;;;;;;3.87;2.30;;;;;;;7.61;65.87;100799.59;5054804;28;20564;-66
2021/03/24 06:01:04;;;;;;;5.90;2.67;;;;;;;7.65;65.70;100806.53;5053335;28;20693;-65
2021/03/24 06:04:12;;;;;;;4.23;2.60;;;;;;;7.50;66.02;100831.41;5059586;28;20593;-65
2021/03/24 06:07:12;;;;;;;5.90;3.03;;;;;;;7.68;66.09;100818.88;4996134;28;20224;-65
2021/03/24 06:10:02;;;;;;;4.60;2.83;;;;;;;7.59;65.80;100812.19;5058920;28;20200;-65
2021/03/24 06:12:54;;;;;;;4.37;2.50;;;;;;;7.61;65.49;100831.66;5054464;28;20642;-65
2021/03/24 06:16:09;;;;;;;10.47;6.40;;;;;;;7.66;65.61;100836.78;5054795;28;20253;-67
2021/03/24 06:18:51;;;;;;;6.47;2.77;;;;;;;7.66;65.02;100835.00;5002135;28;20537;-67
2021/03/24 06:21:27;;;;;;;11.23;2.90;;;;;;;7.58;65.37;100825.63;5047389;28;20207;-67
2021/03/24 06:24:09;;;;;;;6.70;2.60;;;;;;;7.52;65.19;100831.31;5053360;28;20215;-67
2021/03/24 06:27:05;;;;;;;7.27;2.80;;;;;;;7.58;65.33;100830.97;5052395;28;20211;-67
2021/03/24 06:29:46;;;;;;;5.07;2.67;;;;;;;7.48;65.18;100823.47;5052009;28;20317;-67
2021/03/24 06:32:34;;;;;;;7.10;3.47;;;;;;;7.47;65.61;100823.56;5052915;28;20754;-67
2021/03/24 06:35:19;;;;;;;8.80;3.50;;;;;;;7.55;65.30;100817.78;5050499;28;20234;-67
2021/03/24 06:38:25;;;;;;;6.87;3.30;;;;;;;7.46;65.63;100822.69;5052763;28;20271;-66
2021/03/24 06:41:07;;;;;;;11.17;3.23;;;;;;;7.45;65.55;100825.44;5063759;28;20206;-68
2021/03/24 06:43:55;;;;;;;8.67;3.47;;;;;;;7.40;65.49;100812.34;5063002;28;20529;-68
2021/03/24 06:46:33;;;;;;;7.40;3.77;;;;;;;7.39;65.38;100804.41;5059944;28;20197;-68
2021/03/24 06:49:22;;;;;;;13.50;3.67;;;;;;;7.51;65.00;100817.09;5060382;28;20192;-67
2021/03/24 06:52:37;;;;;;;9.03;3.70;;;;;;;7.50;65.03;100810.03;5068580;28;20205;-67
2021/03/24 06:55:52;;;;;;;9.13;4.10;;;;;;;7.53;64.96;100817.00;5063955;28;20215;-67
2021/03/24 06:58:49;;;;;;;10.13;4.00;;;;;;;7.51;64.54;100806.41;5068498;28;20210;-67
2021/03/24 07:01:43;;;;;;;10.47;4.40;;;;;;;7.68;64.64;100814.38;5059253;28;20240;-68
2021/03/24 07:04:53;;;;;;;9.20;4.37;;;;;;;7.83;64.01;100806.44;5063448;28;20203;-67
2021/03/24 07:07:45;;;;;;;8.23;4.03;;;;;;;8.07;63.76;100807.75;5063896;28;20553;-67
2021/03/24 07:10:24;;;;;;;8.87;3.73;;;;;;;8.07;63.27;100805.09;5066519;28;20201;-67
2021/03/24 07:13:24;;;;;;;13.73;4.63;;;;;;;8.10;64.01;100803.09;5064244;28;20231;-65
2021/03/24 07:15:58;;;;;;;8.53;4.47;;;;;;;8.22;63.24;100806.88;5027831;28;20581;-66
2021/03/24 07:18:46;;;;;;;8.70;4.10;;;;;;;8.40;63.72;100805.00;5061981;28;20292;-66
2021/03/24 07:21:49;;;;;;;9.80;3.83;;;;;;;8.78;63.01;100804.56;5058846;28;20203;-66
2021/03/24 07:24:57;;;;;;;11.33;4.13;;;;;;;9.00;61.43;100807.69;5060870;28;20678;-68
2021/03/24 07:27:43;;;;;;;8.83;4.10;;;;;;;9.20;61.13;100798.47;4996115;28;20198;-66
2021/03/24 07:30:45;;;;;;;14.20;4.47;;;;;;;9.36;59.88;100799.22;5062551;28;20311;-67
2021/03/24 07:33:31;;;;;;;8.77;3.43;;;;;;;9.60;60.86;100797.69;5071567;28;20236;-68
2021/03/24 07:36:18;;;;;;;13.23;4.10;;;;;;;9.73;60.05;100794.22;5071515;28;20218;-66
2021/03/24 07:39:17;;;;;;;14.60;4.60;;;;;;;9.91;59.74;100793.06;5059470;28;20378;-66
2021/03/24 07:42:12;;;;;;;10.00;4.00;;;;;;;10.08;59.39;100791.97;5071384;28;20286;-66
2021/03/24 07:44:56;;;;;;;7.87;3.90;;;;;;;9.98;59.33;100774.75;5069877;28;20225;-66
2021/03/24 07:47:39;;;;;;;7.63;3.73;;;;;;;10.16;58.77;100785.16;5067835;28;20647;-68
2021/03/24 07:50:30;;;;;;;11.07;3.90;;;;;;;10.18;58.42;100779.69;5056180;28;20232;-68
2021/03/24 07:53:11;;;;;;;7.83;3.07;;;;;;;10.21;58.41;100785.75;5055943;28;20261;-66
2021/03/24 07:55:42;;;;;;;8.67;3.70;;;;;;;10.25;58.48;100787.25;5061909;28;20640;-66
2021/03/24 07:58:26;;;;;;;7.93;3.57;;;;;;;10.35;57.86;100782.13;5065285;28;20198;-66
2021/03/24 08:00:59;;;;;;;10.33;3.73;;;;;;;10.38;57.71;100789.13;5058369;28;20278;-66
2021/03/24 08:03:31;;;;;;;10.17;4.13;;;;;;;10.45;57.89;100782.41;5055465;28;20202;-66
2021/03/24 08:06:14;;;;;;;11.50;3.70;;;;;;;10.68;57.20;100784.38;5059692;28;20208;-66
2021/03/24 08:08:58;;;;;;;8.87;3.73;;;;;;;10.80;56.44;100783.59;5064213;28;20212;-66
2021/03/24 08:11:32;;;;;;;6.90;3.30;;;;;;;10.85;56.09;100786.81;5057641;28;20201;-68
2021/03/24 08:14:13;;;;;;;8.40;3.47;;;;;;;11.00;55.06;100789.41;5055601;28;20251;-67
2021/03/24 08:17:01;;;;;;;6.97;3.63;;;;;;;10.78;54.74;100764.03;5055573;28;20247;-66
2021/03/24 08:19:57;;;;;;;11.47;3.80;;;;;;;10.94;54.29;100779.06;5061818;28;20206;-67
2021/03/24 08:22:50;;;;;;;12.70;4.00;;;;;;;10.73;54.15;100755.41;5069157;28;20197;-68
2021/03/24 08:25:34;;;;;;;7.07;3.33;;;;;;;10.96;55.24;100787.88;5063338;28;20288;-66
2021/03/24 08:28:29;;;;;;;7.77;3.43;;;;;;;11.00;55.02;100767.91;5065535;28;20196;-66
2021/03/24 08:31:18;;;;;;;12.27;4.50;;;;;;;11.05;54.66;100771.16;5061997;28;20198;-66
2021/03/24 08:34:03;;;;;;;7.90;3.53;;;;;;;11.12;55.00;100777.81;5063194;28;20204;-67
2021/03/24 08:36:51;;;;;;;6.17;2.93;;;;;;;11.10;55.23;100766.31;5061924;28;20701;-67
2021/03/24 08:39:52;;;;;;;7.23;3.30;;;;;;;11.19;54.50;100779.09;5058537;28;20202;-67
2021/03/24 08:42:55;;;;;;;8.80;3.47;;;;;;;11.24;55.54;100768.88;5070784;28;20203;-66
2021/03/24 08:45:27;;;;;;;6.53;3.20;;;;;;;11.34;54.04;100767.28;5066693;28;20199;-66
2021/03/24 08:47:59;;;;;;;6.93;3.67;;;;;;;11.21;54.71;100771.78;5069644;28;20196;-66
2021/03/24 08:50:30;;;;;;;6.73;3.57;;;;;;;11.16;53.87;100764.06;5070541;28;20287;-67
2021/03/24 08:53:06;;;;;;;7.97;3.33;;;;;;;11.25;54.02;100767.91;5067484;28;20240;-67
2021/03/24 08:55:49;;;;;;;7.57;3.60;;;;;;;11.13;53.47;100744.59;5069996;28;20220;-67
2021/03/24 08:58:19;;;;;;;8.50;3.13;;;;;;;11.23;54.26;100764.47;5070237;28;20280;-66
2021/03/24 09:01:17;;;;;;;8.17;3.43;;;;;;;11.31;54.86;100764.78;5067890;28;20197;-67
2021/03/24 09:04:04;;;;;;;7.40;3.70;;;;;;;11.10;53.67;100742.13;5060886;28;20232;-66
2021/03/24 09:06:39;;;;;;;13.57;3.27;;;;;;;11.50;53.82;100764.34;5050267;28;20282;-66
2021/03/24 09:09:20;;;;;;;1337.53;611.53;;;;;;;11.52;53.50;100752.53;5052398;28;20211;-66
2021/03/24 09:11:58;;;;;;;36.43;17.03;;;;;;;11.52;54.04;100768.66;5060786;28;20211;-66
2021/03/24 09:14:33;;;;;;;16.33;8.03;;;;;;;11.70;53.68;100766.50;5062707;28;20209;-66
2021/03/24 09:17:34;;;;;;;77.37;43.00;;;;;;;11.68;54.21;100756.81;5057929;28;20311;-66
2021/03/24 09:20:44;;;;;;;13.23;5.47;;;;;;;11.86;53.02;100768.09;5062302;28;20194;-67
2021/03/24 09:23:48;;;;;;;11.13;3.90;;;;;;;11.92;53.41;100760.41;5058640;28;20201;-66
2021/03/24 09:26:50;;;;;;;8.30;4.03;;;;;;;11.83;53.29;100753.03;5058890;28;20634;-67
2021/03/24 09:29:42;;;;;;;9.83;4.50;;;;;;;11.93;52.97;100772.03;5062800;28;20602;-67
2021/03/24 09:32:24;;;;;;;7.77;4.00;;;;;;;11.99;53.07;100777.88;5061006;28;20198;-67
2021/03/24 09:35:10;;;;;;;7.63;3.77;;;;;;;11.99;52.72;100753.63;5067611;28;20260;-67
2021/03/24 09:37:40;;;;;;;8.30;3.63;;;;;;;12.07;52.58;100759.31;5053276;28;20586;-67
2021/03/24 09:40:12;;;;;;;7.83;3.87;;;;;;;12.05;51.96;100760.41;5056863;28;20694;-67
2021/03/24 09:42:45;;;;;;;9.67;4.07;;;;;;;12.16;53.03;100751.50;5057564;28;20208;-66
2021/03/24 09:45:20;;;;;;;7.47;3.13;;;;;;;12.13;52.43;100758.84;5062693;28;20279;-67
2021/03/24 09:47:52;;;;;;;15.57;3.80;;;;;;;12.37;52.74;100763.38;5056969;28;20190;-67
2021/03/24 09:50:26;;;;;;;5.87;3.10;;;;;;;12.51;51.81;100765.03;5066580;28;20664;-67
2021/03/24 09:52:57;;;;;;;8.77;3.67;;;;;;;12.65;51.45;100763.03;5059250;28;20205;-67
2021/03/24 09:55:29;;;;;;;6.23;3.43;;;;;;;12.74;51.98;100770.41;5055461;28;20657;-68
2021/03/24 09:58:28;;;;;;;7.80;3.77;;;;;;;12.85;51.98;100766.00;5069472;28;20509;-67
2021/03/24 10:01:24;;;;;;;6.50;3.50;;;;;;;12.90;50.21;100769.25;5062696;28;20209;-67
2021/03/24 10:03:59;;;;;;;7.57;3.47;;;;;;;13.06;50.70;100761.66;5058265;28;20233;-67
2021/03/24 10:06:33;;;;;;;6.27;2.97;;;;;;;13.04;50.66;100758.22;5069030;28;20334;-67
2021/03/24 10:09:06;;;;;;;10.77;3.00;;;;;;;13.06;49.55;100762.53;5068563;28;20200;-68
2021/03/24 10:11:47;;;;;;;14.57;3.50;;;;;;;13.09;50.21;100756.03;5064511;28;20730;-67
2021/03/24 10:14:21;;;;;;;5.27;3.07;;;;;;;12.99;50.39;100763.13;5062718;28;20577;-67
2021/03/24 10:16:58;;;;;;;8.83;2.87;;;;;;;13.12;50.98;100750.41;5067975;28;20713;-67
2021/03/24 10:19:32;;;;;;;5.00;2.77;;;;;;;13.28;50.57;100764.44;5056763;28;20203;-67
2021/03/24 10:22:08;;;;;;;5.40;2.80;;;;;;;13.06;50.23;100713.13;5065157;28;20214;-68
2021/03/24 10:24:43;;;;;;;6.07;2.93;;;;;;;13.29;50.58;100763.47;5068283;28;20229;-67
2021/03/24 10:27:15;;;;;;;7.37;3.10;;;;;;;13.34;50.64;100757.69;5068507;28;20659;-68
2021/03/24 10:29:52;;;;;;;9.10;3.10;;;;;;;13.35;50.04;100768.38;5064665;28;20236;-67
2021/03/24 10:32:26;;;;;;;8.87;3.10;;;;;;;13.43;50.30;100767.75;5058031;28;20197;-68
2021/03/24 10:35:12;;;;;;;13.90;3.30;;;;;;;13.34;49.39;100750.47;5063152;28;20646;-67
2021/03/24 10:37:49;;;;;;;10.03;2.87;;;;;;;13.29;49.69;100752.66;5067039;28;20235;-68
2021/03/24 10:40:23;;;;;;;7.77;3.13;;;;;;;13.34;50.56;100768.50;5068508;28;20560;-68
2021/03/24 10:42:55;;;;;;;7.03;3.13;;;;;;;13.42;49.94;100759.78;5066115;28;20285;-68
2021/03/24 10:45:27;;;;;;;6.53;3.17;;;;;;;13.32;49.39;100756.97;5065745;28;20221;-67
2021/03/24 10:48:06;;;;;;;6.60;2.63;;;;;;;13.32;50.06;100752.44;5060854;28;20224;-67
2021/03/24 10:50:42;;;;;;;5.37;2.90;;;;;;;12.96;49.31;100686.06;5061409;28;20198;-67
2021/03/24 10:53:21;;;;;;;10.27;3.20;;;;;;;13.44;49.80;100750.56;5060883;28;20197;-68
2021/03/24 10:56:05;;;;;;;5.60;3.17;;;;;;;13.49;49.76;100761.88;5068915;28;20222;-65
2021/03/24 10:58:53;;;;;;;4.83;3.00;;;;;;;13.42;49.19;100768.72;5066230;28;20206;-67
2021/03/24 11:01:27;;;;;;;6.93;3.40;;;;;;;13.28;50.14;100734.78;5058243;28;20228;-67
2021/03/24 11:04:06;;;;;;;6.63;3.03;;;;;;;13.53;49.87;100757.09;5059867;28;20202;-67
2021/03/24 11:06:38;;;;;;;7.83;3.60;;;;;;;13.19;50.29;100730.13;5054213;28;20229;-67
2021/03/24 11:09:10;;;;;;;8.00;3.37;;;;;;;13.53;49.63;100743.63;5067573;28;20280;-67
2021/03/24 11:11:44;;;;;;;8.37;2.97;;;;;;;13.48;50.49;100756.63;5058888;28;20199;-67
2021/03/24 11:14:16;;;;;;;6.10;2.70;;;;;;;13.58;49.38;100742.25;5063432;28;20202;-67
2021/03/24 11:16:47;;;;;;;8.23;3.27;;;;;;;13.66;50.10;100750.59;5052093;28;20641;-67
2021/03/24 11:19:26;;;;;;;7.20;3.40;;;;;;;13.51;49.78;100707.81;5066771;28;20199;-68
2021/03/24 11:22:08;;;;;;;5.97;3.40;;;;;;;13.96;49.60;100746.38;5068383;28;20688;-67
2021/03/24 11:24:49;;;;;;;5.67;3.07;;;;;;;14.00;48.86;100747.84;5065873;28;20616;-67
2021/03/24 11:27:22;;;;;;;348.63;213.53;;;;;;;14.08;49.56;100748.09;5067766;28;20321;-68
2021/03/24 11:29:58;;;;;;;69.27;34.67;;;;;;;13.95;48.93;100734.72;5057130;28;20254;-68
2021/03/24 11:32:37;;;;;;;17.57;8.03;;;;;;;14.08;49.26;100740.00;5068414;28;20271;-67
2021/03/24 11:35:18;;;;;;;7.83;4.27;;;;;;;14.02;49.80;100718.00;5067500;28;20211;-67
2021/03/24 11:37:52;;;;;;;7.50;4.60;;;;;;;14.38;49.21;100730.28;5059045;28;20287;-68
2021/03/24 11:40:27;;;;;;;16.37;11.77;;;;;;;14.42;49.01;100732.63;5065540;28;20218;-68
2021/03/24 11:42:59;;;;;;;7.17;3.40;;;;;;;14.69;48.18;100731.28;5064224;28;20204;-68
2021/03/24 11:45:28;;;;;;;7.73;3.70;;;;;;;14.78;48.05;100727.81;5061474;28;20278;-68
2021/03/24 11:48:27;;;;;;;6.27;3.03;;;;;;;15.03;47.66;100722.03;5065520;28;20283;-66
2021/03/24 11:51:10;;;;;;;6.37;3.50;;;;;;;15.16;47.28;100732.63;5060959;28;20199;-66
2021/03/24 11:53:54;;;;;;;6.13;3.40;;;;;;;15.22;47.45;100727.53;5056142;28;20207;-66
2021/03/24 11:56:33;;;;;;;5.40;3.10;;;;;;;15.42;47.47;100723.06;5064496;28;20228;-66
2021/03/24 11:59:10;;;;;;;9.53;3.43;;;;;;;15.59;47.30;100729.72;5060069;28;20202;-66
2021/03/24 12:02:02;;;;;;;9.03;4.07;;;;;;;15.74;46.66;100728.38;5064730;28;20201;-67
2021/03/24 12:04:48;;;;;;;5.73;2.83;;;;;;;15.94;47.08;100731.13;5065725;28;20316;-67
2021/03/24 12:07:28;;;;;;;4.80;3.17;;;;;;;16.02;46.76;100734.84;5065775;28;20629;-67
2021/03/24 12:10:03;;;;;;;4.13;2.60;;;;;;;16.30;46.45;100741.31;5054853;28;20319;-67
2021/03/24 12:12:31;;;;;;;6.10;3.03;;;;;;;16.34;46.30;100734.63;5055346;28;20200;-67
2021/03/24 12:15:03;;;;;;;4.13;2.70;;;;;;;16.40;46.20;100736.75;5055484;28;20703;-67
2021/03/24 12:17:34;;;;;;;4.27;2.60;;;;;;;16.42;46.48;100736.63;5062576;28;20216;-67